createdAt,value
2023-04-29T00:00:00.277Z,82
2023-04-29T00:05:00.539Z,82
2023-04-29T00:10:00.207Z,82
2023-04-29T00:15:00.286Z,82
2023-04-29T00:20:00.237Z,82
2023-04-29T00:25:00.290Z,82
2023-04-29T00:30:00.158Z,82
2023-04-29T00:35:00.238Z,82
2023-04-29T00:40:00.255Z,82
2023-04-29T00:45:00.185Z,82
2023-04-29T00:50:00.166Z,82
2023-04-29T00:55:00.234Z,82
2023-04-29T01:00:00.288Z,82
2023-04-29T01:05:00.309Z,83
2023-04-29T01:10:00.232Z,83
2023-04-29T01:15:00.302Z,83
2023-04-29T01:20:00.174Z,83
2023-04-29T01:25:00.282Z,83
2023-04-29T01:30:00.197Z,83
2023-04-29T01:35:00.289Z,83
2023-04-29T01:40:00.240Z,83
2023-04-29T01:45:00.272Z,83
2023-04-29T01:50:00.231Z,83
2023-04-29T01:55:00.221Z,83
2023-04-29T02:00:00.290Z,84
2023-04-29T02:05:00.332Z,83
2023-04-29T02:10:00.214Z,83
2023-04-29T02:15:00.300Z,83
2023-04-29T02:20:00.277Z,83
2023-04-29T02:25:00.303Z,83
2023-04-29T02:30:00.194Z,83
2023-04-29T02:35:03.324Z,83
2023-04-29T02:40:00.213Z,83
2023-04-29T02:45:00.246Z,83
2023-04-29T02:50:00.210Z,83
2023-04-29T02:55:00.186Z,83
2023-04-29T03:00:00.214Z,83
2023-04-29T03:05:00.287Z,83
2023-04-29T03:10:00.207Z,83
2023-04-29T03:15:00.197Z,83
2023-04-29T03:20:00.237Z,83
2023-04-29T03:25:00.248Z,83
2023-04-29T03:30:00.203Z,83
2023-04-29T03:35:00.272Z,83
2023-04-29T03:40:00.219Z,83
2023-04-29T03:45:00.208Z,83
2023-04-29T03:50:00.195Z,83
2023-04-29T03:55:00.212Z,83
2023-04-29T04:00:00.234Z,83
2023-04-29T04:05:00.321Z,83
2023-04-29T04:10:00.269Z,83
2023-04-29T04:15:00.239Z,83
2023-04-29T04:20:00.196Z,84
2023-04-29T04:25:00.295Z,84
2023-04-29T04:30:00.290Z,84
2023-04-29T04:35:00.274Z,84
2023-04-29T04:40:00.248Z,84
2023-04-29T04:45:00.264Z,84
2023-04-29T04:50:00.219Z,84
2023-04-29T04:55:00.256Z,84
2023-04-29T05:00:00.258Z,84
2023-04-29T05:05:00.253Z,84
2023-04-29T05:10:00.268Z,84
2023-04-29T05:15:00.273Z,84
2023-04-29T05:20:00.259Z,84
2023-04-29T05:25:00.289Z,84
2023-04-29T05:30:00.268Z,84
2023-04-29T05:35:00.211Z,84
2023-04-29T05:40:00.211Z,84
2023-04-29T05:45:00.233Z,84
2023-04-29T05:50:00.262Z,84
2023-04-29T05:55:00.241Z,84
2023-04-29T06:00:00.215Z,84
2023-04-29T06:05:00.518Z,84
2023-04-29T06:10:00.237Z,84
2023-04-29T06:15:00.232Z,84
2023-04-29T06:20:00.243Z,84
2023-04-29T06:25:00.279Z,84
2023-04-29T06:30:00.233Z,84
2023-04-29T06:35:00.216Z,84
2023-04-29T06:40:00.254Z,84
2023-04-29T06:45:00.227Z,84
2023-04-29T06:50:00.278Z,84
2023-04-29T06:55:00.187Z,84
2023-04-29T07:00:00.227Z,84
2023-04-29T07:05:00.236Z,84
2023-04-29T07:10:00.268Z,84
2023-04-29T07:15:00.297Z,84
2023-04-29T07:20:00.241Z,84
2023-04-29T07:25:00.176Z,84
2023-04-29T07:30:00.209Z,84
2023-04-29T07:35:00.239Z,84
2023-04-29T07:40:00.241Z,84
2023-04-29T07:45:00.214Z,84
2023-04-29T07:50:00.533Z,84
2023-04-29T07:55:00.301Z,84
2023-04-29T08:00:00.304Z,84
2023-04-29T08:05:00.676Z,84
2023-04-29T08:10:00.230Z,84
2023-04-29T08:15:00.173Z,84
2023-04-29T08:20:00.221Z,85
2023-04-29T08:25:00.300Z,85
2023-04-29T08:30:00.242Z,85
2023-04-29T08:35:00.214Z,85
2023-04-29T08:40:00.174Z,84
2023-04-29T08:45:00.241Z,84
2023-04-29T08:50:00.171Z,85
2023-04-29T08:55:00.237Z,84
2023-04-29T09:00:00.274Z,84
2023-04-29T09:05:00.458Z,84
2023-04-29T09:10:00.262Z,84
2023-04-29T09:15:00.358Z,84
2023-04-29T09:20:00.245Z,84
2023-04-29T09:25:00.235Z,84
2023-04-29T09:30:00.211Z,84
2023-04-29T09:35:00.287Z,84
2023-04-29T09:40:00.286Z,84
2023-04-29T09:45:00.244Z,83
2023-04-29T09:50:00.270Z,83
2023-04-29T09:55:00.303Z,83
2023-04-29T10:00:00.294Z,82
2023-04-29T10:05:00.307Z,81
2023-04-29T10:10:00.161Z,82
2023-04-29T10:15:00.237Z,82
2023-04-29T10:20:00.244Z,81
2023-04-29T10:25:00.244Z,80
2023-04-29T10:30:00.249Z,80
2023-04-29T10:35:00.224Z,79
2023-04-29T10:40:00.197Z,80
2023-04-29T10:45:00.307Z,78
2023-04-29T10:50:00.228Z,79
2023-04-29T10:55:00.245Z,78
2023-04-29T11:00:00.244Z,79
2023-04-29T11:05:00.429Z,78
2023-04-29T11:10:00.208Z,78
2023-04-29T11:15:00.223Z,78
2023-04-29T11:20:00.231Z,77
2023-04-29T11:25:00.260Z,77
2023-04-29T11:30:00.236Z,75
2023-04-29T11:35:00.191Z,76
2023-04-29T11:40:00.281Z,76
2023-04-29T11:45:00.163Z,76
2023-04-29T11:50:00.251Z,75
2023-04-29T11:55:00.285Z,74
2023-04-29T12:00:00.282Z,74
2023-04-29T12:05:00.585Z,74
2023-04-29T12:10:00.341Z,74
2023-04-29T12:15:00.292Z,75
2023-04-29T12:20:00.206Z,74
2023-04-29T12:25:00.285Z,74
2023-04-29T12:30:00.287Z,74
2023-04-29T12:35:00.190Z,74
2023-04-29T12:40:00.297Z,74
2023-04-29T12:45:00.394Z,74
2023-04-29T12:50:00.232Z,74
2023-04-29T12:55:00.288Z,74
2023-04-29T13:00:00.195Z,74
2023-04-29T13:05:00.491Z,74
2023-04-29T13:10:00.192Z,74
2023-04-29T13:15:00.371Z,74
2023-04-29T13:20:00.200Z,74
2023-04-29T13:25:00.216Z,72
2023-04-29T13:30:00.242Z,73
2023-04-29T13:35:00.238Z,71
2023-04-29T13:40:00.189Z,71
2023-04-29T13:45:00.607Z,70
2023-04-29T13:50:46.191Z,70
2023-04-29T14:00:00.487Z,71
2023-04-29T14:05:00.602Z,71
2023-04-29T14:10:00.208Z,71
2023-04-29T14:15:00.714Z,71
2023-04-29T14:20:00.175Z,71
2023-04-29T14:25:00.175Z,71
2023-04-29T14:30:00.240Z,71
2023-04-29T14:35:00.284Z,71
2023-04-29T14:40:00.233Z,70
2023-04-29T14:45:00.302Z,70
2023-04-29T14:50:00.273Z,69
2023-04-29T14:55:00.250Z,69
2023-04-29T15:00:00.209Z,69
2023-04-29T15:05:00.222Z,69
2023-04-29T15:10:00.203Z,68
2023-04-29T15:15:00.210Z,68
2023-04-29T15:20:00.220Z,68
2023-04-29T15:25:00.236Z,69
2023-04-29T15:30:00.225Z,68
2023-04-29T15:35:00.299Z,68
2023-04-29T15:40:00.206Z,68
2023-04-29T15:45:00.283Z,68
2023-04-29T15:50:00.250Z,68
2023-04-29T15:55:00.215Z,68
2023-04-29T16:00:00.278Z,68
2023-04-29T16:05:00.226Z,68
2023-04-29T16:10:00.209Z,69
2023-04-29T16:15:00.240Z,68
2023-04-29T16:20:00.242Z,69
2023-04-29T16:25:00.274Z,69
2023-04-29T16:30:00.756Z,69
2023-04-29T16:35:01.547Z,69
2023-04-29T16:40:00.258Z,69
2023-04-29T16:45:00.251Z,69
2023-04-29T16:50:00.194Z,68
2023-04-29T16:55:00.216Z,68
2023-04-29T17:00:00.249Z,68
2023-04-29T17:05:00.293Z,68
2023-04-29T17:10:00.165Z,68
2023-04-29T17:15:00.381Z,69
2023-04-29T17:20:00.241Z,69
2023-04-29T17:25:00.223Z,69
2023-04-29T17:30:00.242Z,69
2023-04-29T17:35:00.216Z,69
2023-04-29T17:40:00.199Z,69
2023-04-29T17:45:00.157Z,69
2023-04-29T17:50:02.335Z,69
2023-04-29T17:55:00.173Z,69
2023-04-29T18:00:00.226Z,69
2023-04-29T18:05:00.311Z,69
2023-04-29T18:10:00.204Z,69
2023-04-29T18:15:00.593Z,69
2023-04-29T18:20:00.292Z,70
2023-04-29T18:25:00.458Z,70
2023-04-29T18:30:00.200Z,70
2023-04-29T18:35:00.270Z,70
2023-04-29T18:40:00.203Z,70
2023-04-29T18:45:00.215Z,70
2023-04-29T18:50:00.247Z,70
2023-04-29T18:55:00.268Z,70
2023-04-29T19:00:00.225Z,70
2023-04-29T19:05:00.409Z,71
2023-04-29T19:10:00.234Z,71
2023-04-29T19:15:00.283Z,71
2023-04-29T19:20:00.253Z,71
2023-04-29T19:25:00.216Z,71
2023-04-29T19:30:00.160Z,71
2023-04-29T19:35:00.253Z,71
2023-04-29T19:40:00.251Z,72
2023-04-29T19:45:00.286Z,72
2023-04-29T19:50:00.209Z,72
2023-04-29T19:55:00.194Z,73
2023-04-29T20:00:00.208Z,72
2023-04-29T20:05:00.236Z,73
2023-04-29T20:10:00.241Z,73
2023-04-29T20:15:00.256Z,72
2023-04-29T20:20:00.208Z,72
2023-04-29T20:25:00.291Z,72
2023-04-29T20:30:00.210Z,72
2023-04-29T20:35:00.229Z,71
2023-04-29T20:40:00.256Z,71
2023-04-29T20:45:00.258Z,71
2023-04-29T20:50:00.247Z,71
2023-04-29T20:55:00.259Z,71
2023-04-29T21:00:00.213Z,71
2023-04-29T21:05:00.553Z,71
2023-04-29T21:10:00.217Z,71
2023-04-29T21:15:00.255Z,71
2023-04-29T21:20:00.207Z,71
2023-04-29T21:25:00.246Z,71
2023-04-29T21:30:00.193Z,71
2023-04-29T21:35:00.212Z,71
2023-04-29T21:40:00.459Z,71
2023-04-29T21:45:00.301Z,70
2023-04-29T21:50:00.236Z,70
2023-04-29T21:55:00.231Z,70
2023-04-29T22:00:00.212Z,71
2023-04-29T22:05:00.271Z,71
2023-04-29T22:10:00.193Z,71
2023-04-29T22:15:00.184Z,71
2023-04-29T22:20:00.165Z,71
2023-04-29T22:25:00.246Z,71
2023-04-29T22:30:00.209Z,71
2023-04-29T22:35:00.956Z,71
2023-04-29T22:40:00.219Z,72
2023-04-29T22:45:00.220Z,72
2023-04-29T22:50:00.246Z,72
2023-04-29T22:55:00.250Z,72
2023-04-29T23:00:00.215Z,72
2023-04-29T23:05:00.191Z,72
2023-04-29T23:10:00.185Z,72
2023-04-29T23:15:00.288Z,73
2023-04-29T23:20:00.194Z,73
2023-04-29T23:25:00.248Z,73
2023-04-29T23:30:00.253Z,73
2023-04-29T23:35:00.264Z,73
2023-04-29T23:40:00.254Z,74
2023-04-29T23:45:00.230Z,74
2023-04-29T23:50:00.237Z,74
2023-04-29T23:55:00.236Z,74
